Time;durP1;ratioP1;P1;durP2;ratioP2;P2;SDS_P1;SDS_P2;PMS_P1;PMS_P2;Temp;Humidity;BMP_temperature;BMP_pressure;BME280_temperature;BME280_humidity;BME280_pressure;Samples;Min_cycle;Max_cycle;Signal;HPM_P1;HPM_P2
2021/05/20 00:01:20;;;;;;;2.78;1.85;;;10.50;99.90;;;;;;6303269;28;20025;-77
2021/05/20 00:04:23;;;;;;;3.35;1.63;;;10.50;99.90;;;;;;6303228;28;20091;-77
2021/05/20 00:07:24;;;;;;;4.28;1.77;;;10.40;99.90;;;;;;6303700;28;20060;-77
2021/05/20 00:10:26;;;;;;;2.35;1.88;;;10.30;99.90;;;;;;6302317;28;20025;-76
2021/05/20 00:13:27;;;;;;;2.00;1.67;;;10.30;99.90;;;;;;6307182;28;20037;-76
2021/05/20 00:16:28;;;;;;;3.17;1.80;;;10.20;99.90;;;;;;6307333;28;20063;-77
2021/05/20 00:19:31;;;;;;;2.88;2.65;;;10.20;99.90;;;;;;6281976;28;20049;-77
2021/05/20 00:22:32;;;;;;;3.25;1.77;;;10.10;99.90;;;;;;6277701;28;20128;-76
2021/05/20 00:25:33;;;;;;;2.20;2.00;;;10.10;99.90;;;;;;6277638;28;20075;-77
2021/05/20 00:28:35;;;;;;;2.75;2.20;;;10.10;99.90;;;;;;6277258;28;20101;-77
2021/05/20 00:31:36;;;;;;;2.55;2.08;;;10.00;99.90;;;;;;6277865;28;20049;-78
2021/05/20 00:34:38;;;;;;;4.80;2.30;;;10.00;99.90;;;;;;6276476;28;20051;-77
2021/05/20 00:37:40;;;;;;;4.35;2.50;;;9.90;99.90;;;;;;6276933;28;20071;-77
2021/05/20 00:40:41;;;;;;;5.00;2.60;;;9.80;99.90;;;;;;6276787;28;20075;-75
2021/05/20 00:43:43;;;;;;;2.58;1.98;;;9.80;99.90;;;;;;6278069;28;20073;-78
2021/05/20 00:46:44;;;;;;;4.45;2.53;;;9.70;99.90;;;;;;6276548;28;20055;-77
2021/05/20 00:49:47;;;;;;;4.68;2.00;;;9.70;99.90;;;;;;6276006;28;20455;-77
2021/05/20 00:52:48;;;;;;;5.80;2.35;;;9.70;99.90;;;;;;6276183;28;20477;-78
2021/05/20 00:55:50;;;;;;;3.33;2.03;;;9.70;99.90;;;;;;6277290;28;20139;-77
2021/05/20 00:58:51;;;;;;;4.20;2.20;;;9.70;99.90;;;;;;6276175;28;20471;-77
2021/05/20 01:01:53;;;;;;;6.80;2.38;;;9.70;99.90;;;;;;6276837;28;20561;-77
2021/05/20 01:04:55;;;;;;;7.38;2.30;;;9.80;99.90;;;;;;6276573;28;20048;-78
2021/05/20 01:07:56;;;;;;;2.50;2.05;;;9.80;99.90;;;;;;6277273;28;20525;-77
2021/05/20 01:10:59;;;;;;;3.00;2.30;;;9.80;99.90;;;;;;6276214;28;20069;-77
2021/05/20 01:14:01;;;;;;;4.65;4.15;;;9.90;99.90;;;;;;6276864;28;20041;-77
2021/05/20 01:17:02;;;;;;;3.38;1.77;;;9.90;99.90;;;;;;6279151;28;20175;-77
2021/05/20 01:20:06;;;;;;;3.72;3.40;;;9.90;99.90;;;;;;6279782;28;20088;-77
2021/05/20 01:23:10;;;;;;;1.92;1.83;;;10.00;99.90;;;;;;6278108;28;20109;-77
2021/05/20 01:26:13;;;;;;;2.45;2.20;;;10.00;99.90;;;;;;6279112;28;20095;-77
2021/05/20 01:29:14;;;;;;;3.80;2.00;;;10.00;99.90;;;;;;6282160;28;20128;-77
2021/05/20 01:32:15;;;;;;;3.05;1.52;;;10.00;99.90;;;;;;6274958;28;20584;-77
2021/05/20 01:35:17;;;;;;;3.40;2.03;;;10.00;99.90;;;;;;6275802;28;20045;-77
2021/05/20 01:38:41;;;;;;;3.58;2.65;;;10.00;99.90;;;;;;6275560;28;20490;-77
2021/05/20 01:41:42;;;;;;;3.67;1.65;;;10.00;99.90;;;;;;6274651;28;20510;-77
2021/05/20 01:44:44;;;;;;;3.20;2.13;;;10.10;99.90;;;;;;6275151;28;20053;-77
2021/05/20 01:47:45;;;;;;;3.15;1.45;;;10.10;99.90;;;;;;6275064;28;20049;-78
2021/05/20 01:50:46;;;;;;;4.22;2.05;;;10.10;99.90;;;;;;6274658;28;20196;-77
2021/05/20 01:53:50;;;;;;;4.35;1.70;;;10.20;99.90;;;;;;6275488;28;20162;-77
2021/05/20 01:56:51;;;;;;;4.13;1.98;;;10.20;99.90;;;;;;6275048;28;20045;-77
2021/05/20 01:59:53;;;;;;;3.05;1.58;;;10.20;99.90;;;;;;6274656;28;20056;-77
2021/05/20 02:02:54;;;;;;;2.78;1.45;;;10.20;99.90;;;;;;6274806;28;20117;-77
2021/05/20 02:05:57;;;;;;;4.55;1.60;;;10.20;99.90;;;;;;6274101;28;20124;-77
2021/05/20 02:08:59;;;;;;;3.03;1.70;;;10.20;99.90;;;;;;6273777;28;20493;-77
2021/05/20 02:12:00;;;;;;;1.90;1.73;;;10.20;99.90;;;;;;6274314;28;20573;-77
2021/05/20 02:15:02;;;;;;;2.97;2.13;;;10.20;99.90;;;;;;6274316;28;20076;-77
2021/05/20 02:18:04;;;;;;;6.00;2.10;;;10.30;99.90;;;;;;6274230;28;20065;-77
2021/05/20 02:21:06;;;;;;;3.97;2.05;;;10.30;99.90;;;;;;6274007;28;20049;-77
2021/05/20 02:24:09;;;;;;;7.55;3.78;;;10.30;99.90;;;;;;6273897;28;20044;-77
2021/05/20 02:27:10;;;;;;;3.53;1.83;;;10.30;99.90;;;;;;6274389;28;20052;-77
2021/05/20 02:30:13;;;;;;;2.40;1.77;;;10.30;99.90;;;;;;6273223;28;20530;-77
2021/05/20 02:33:15;;;;;;;4.05;2.55;;;10.30;99.90;;;;;;6273361;28;20045;-77
2021/05/20 02:36:16;;;;;;;4.78;2.08;;;10.30;99.90;;;;;;6273816;28;20075;-77
2021/05/20 02:39:20;;;;;;;4.60;2.30;;;10.40;99.90;;;;;;6274232;28;20084;-77
2021/05/20 02:42:22;;;;;;;3.15;2.85;;;10.40;99.90;;;;;;6273509;28;20418;-77
2021/05/20 02:45:25;;;;;;;2.67;1.92;;;10.40;99.90;;;;;;6273836;28;20045;-77
2021/05/20 02:48:26;;;;;;;5.53;1.95;;;10.40;99.90;;;;;;6274524;28;20123;-77
2021/05/20 02:51:27;;;;;;;5.97;2.38;;;10.40;99.90;;;;;;6273916;28;20502;-77
2021/05/20 02:54:29;;;;;;;2.75;2.35;;;10.40;99.90;;;;;;6273606;28;20129;-77
2021/05/20 02:57:31;;;;;;;4.72;2.80;;;10.40;99.90;;;;;;6272992;28;20128;-77
2021/05/20 03:00:33;;;;;;;4.80;3.05;;;10.30;99.90;;;;;;6273364;28;20041;-77
2021/05/20 03:03:35;;;;;;;2.53;2.33;;;10.30;99.90;;;;;;6273104;28;20632;-77
2021/05/20 03:06:36;;;;;;;2.60;2.40;;;10.30;99.90;;;;;;6273322;28;20080;-77
2021/05/20 03:09:39;;;;;;;3.10;2.80;;;10.30;99.90;;;;;;6272685;28;20140;-77
2021/05/20 03:12:41;;;;;;;3.60;2.80;;;10.30;99.90;;;;;;6273239;28;20049;-77
2021/05/20 03:15:42;;;;;;;4.47;2.75;;;10.30;99.90;;;;;;6273387;28;20479;-77
2021/05/20 03:18:43;;;;;;;2.47;2.28;;;10.30;99.90;;;;;;6273067;28;20533;-77
2021/05/20 03:21:45;;;;;;;3.40;2.53;;;10.20;99.90;;;;;;6273223;28;20045;-77
2021/05/20 03:24:49;;;;;;;2.80;2.50;;;10.20;99.90;;;;;;6275244;28;20532;-77
2021/05/20 03:27:51;;;;;;;3.33;2.40;;;10.20;99.90;;;;;;6274231;28;20056;-77
2021/05/20 03:30:52;;;;;;;2.78;2.47;;;10.20;99.90;;;;;;6272895;28;20578;-78
2021/05/20 03:33:53;;;;;;;2.67;2.42;;;10.30;99.90;;;;;;6274457;28;20128;-77
2021/05/20 03:36:55;;;;;;;2.67;2.10;;;10.30;99.90;;;;;;6273856;28;20075;-77
2021/05/20 03:39:57;;;;;;;3.22;2.90;;;10.30;99.90;;;;;;6274394;28;20082;-78
2021/05/20 03:42:58;;;;;;;3.00;2.42;;;10.30;99.90;;;;;;6275000;28;20186;-78
2021/05/20 03:46:00;;;;;;;4.78;2.67;;;10.30;99.90;;;;;;6273984;28;20489;-78
2021/05/20 03:49:01;;;;;;;2.45;1.92;;;10.30;99.90;;;;;;6274286;28;20049;-77
2021/05/20 03:52:02;;;;;;;3.58;2.80;;;10.30;99.90;;;;;;6274705;28;20387;-78
2021/05/20 03:55:05;;;;;;;8.23;2.78;;;10.30;99.90;;;;;;6274365;28;20134;-78
2021/05/20 03:58:07;;;;;;;4.95;3.22;;;10.30;99.90;;;;;;6274122;28;20049;-77
2021/05/20 04:01:08;;;;;;;5.28;2.80;;;10.30;99.90;;;;;;6274722;28;20060;-78
2021/05/20 04:04:09;;;;;;;5.30;3.50;;;10.40;99.90;;;;;;6274743;28;20041;-78
2021/05/20 04:07:11;;;;;;;5.13;3.45;;;10.30;99.90;;;;;;6273330;28;20131;-78
2021/05/20 04:10:14;;;;;;;6.13;3.35;;;10.20;99.90;;;;;;6271865;28;20537;-78
2021/05/20 04:13:28;;;;;;;4.57;2.67;;;10.20;99.90;;;;;;6271931;28;20065;-78
2021/05/20 04:16:29;;;;;;;3.47;2.55;;;10.20;99.90;;;;;;6272271;28;20532;-78
2021/05/20 04:19:30;;;;;;;3.90;2.70;;;10.30;99.90;;;;;;6273169;28;20049;-78
2021/05/20 04:22:32;;;;;;;4.75;2.92;;;10.30;99.90;;;;;;6272020;28;20045;-78
2021/05/20 04:25:34;;;;;;;4.75;2.92;;;10.40;99.90;;;;;;6272009;28;20522;-77
2021/05/20 04:28:35;;;;;;;3.20;2.88;;;10.50;99.90;;;;;;6271932;28;20128;-79
2021/05/20 04:31:37;;;;;;;4.95;3.45;;;10.50;99.90;;;;;;6273386;28;20049;-78
2021/05/20 04:34:38;;;;;;;5.38;3.55;;;10.60;99.90;;;;;;6272064;28;20041;-78
2021/05/20 04:37:39;;;;;;;3.72;3.03;;;10.70;99.90;;;;;;6272226;28;20063;-80
2021/05/20 04:40:41;;;;;;;3.97;3.20;;;10.70;99.90;;;;;;6272458;28;20073;-77
2021/05/20 04:43:43;;;;;;;4.38;2.63;;;10.80;99.90;;;;;;6271989;28;20056;-78
2021/05/20 04:46:44;;;;;;;2.75;2.55;;;10.90;99.90;;;;;;6271780;28;20467;-77
2021/05/20 04:49:45;;;;;;;3.10;2.85;;;11.00;99.90;;;;;;6271011;28;20132;-77
2021/05/20 04:52:47;;;;;;;4.97;2.63;;;11.10;99.90;;;;;;6271406;28;20493;-78
2021/05/20 04:55:49;;;;;;;4.28;2.25;;;11.10;99.90;;;;;;6272638;28;20148;-78
2021/05/20 04:58:51;;;;;;;2.30;2.10;;;11.20;99.90;;;;;;6275327;28;20069;-77
2021/05/20 05:01:52;;;;;;;3.67;2.95;;;11.20;99.90;;;;;;6275716;28;20110;-78
2021/05/20 05:04:53;;;;;;;2.97;2.28;;;11.20;99.90;;;;;;6275448;28;20045;-77
2021/05/20 05:07:55;;;;;;;10.15;3.55;;;11.20;99.90;;;;;;6276405;28;20187;-77
2021/05/20 05:10:57;;;;;;;3.15;2.55;;;11.20;99.90;;;;;;6275722;28;20558;-78
2021/05/20 05:13:58;;;;;;;4.28;2.25;;;11.30;99.90;;;;;;6276275;28;20068;-78
2021/05/20 05:17:00;;;;;;;5.30;3.67;;;11.30;99.90;;;;;;6276354;28;20076;-77
2021/05/20 05:20:01;;;;;;;3.03;2.17;;;11.30;99.90;;;;;;6275492;28;20055;-77
2021/05/20 05:23:04;;;;;;;4.65;2.67;;;11.30;99.90;;;;;;6276332;28;20095;-77
2021/05/20 05:26:06;;;;;;;3.10;2.22;;;11.30;99.90;;;;;;6278210;28;20064;-78
2021/05/20 05:29:08;;;;;;;2.83;2.55;;;11.30;99.90;;;;;;6279150;28;20053;-79
2021/05/20 05:32:09;;;;;;;3.33;3.03;;;11.30;99.90;;;;;;6276196;28;20049;-77
2021/05/20 05:35:11;;;;;;;4.00;3.15;;;11.30;99.90;;;;;;6275505;28;20084;-77
2021/05/20 05:38:14;;;;;;;5.53;3.53;;;11.30;99.90;;;;;;6274899;28;20518;-79
2021/05/20 05:41:16;;;;;;;2.97;2.65;;;11.30;99.90;;;;;;6274854;28;20118;-78
2021/05/20 05:44:17;;;;;;;3.53;2.90;;;11.40;99.90;;;;;;6274382;28;20068;-78
2021/05/20 05:47:18;;;;;;;3.85;3.15;;;11.40;99.90;;;;;;6275188;28;20540;-77
2021/05/20 05:50:20;;;;;;;2.90;2.63;;;11.40;99.90;;;;;;6274295;28;20115;-78
2021/05/20 05:53:21;;;;;;;4.25;3.40;;;11.40;99.90;;;;;;6275892;28;20136;-78
2021/05/20 05:56:23;;;;;;;3.78;2.28;;;11.50;99.90;;;;;;6274741;28;20131;-77
2021/05/20 05:59:25;;;;;;;6.82;3.15;;;11.50;99.90;;;;;;6274712;28;20077;-77
2021/05/20 06:02:27;;;;;;;4.13;2.90;;;11.40;99.90;;;;;;6274342;28;20136;-78
2021/05/20 06:05:28;;;;;;;4.15;3.25;;;11.50;99.90;;;;;;6259459;28;20042;-77
2021/05/20 06:08:29;;;;;;;4.80;3.35;;;11.50;99.90;;;;;;6272006;28;20593;-78
2021/05/20 06:11:31;;;;;;;5.97;3.33;;;11.60;99.90;;;;;;6274936;28;20541;-78
2021/05/20 06:14:36;;;;;;;4.32;2.85;;;11.60;99.90;;;;;;6258175;28;20167;-78
2021/05/20 06:17:38;;;;;;;5.30;3.20;;;11.70;99.90;;;;;;6249703;28;20049;-77
2021/05/20 06:20:39;;;;;;;5.05;2.70;;;11.90;99.90;;;;;;6250262;28;20509;-78
2021/05/20 06:23:41;;;;;;;3.55;3.25;;;12.10;99.80;;;;;;6251443;28;20136;-77
2021/05/20 06:26:43;;;;;;;3.28;2.38;;;12.40;98.80;;;;;;6249756;28;20069;-78
2021/05/20 06:29:44;;;;;;;4.00;3.13;;;12.60;97.90;;;;;;6249603;28;20069;-77
2021/05/20 06:32:45;;;;;;;5.55;3.17;;;12.90;96.80;;;;;;6249672;28;20129;-78
2021/05/20 06:35:47;;;;;;;4.38;3.28;;;13.00;95.70;;;;;;6249424;28;20049;-77
2021/05/20 06:38:48;;;;;;;3.80;2.88;;;13.10;95.00;;;;;;6254680;28;20079;-78
2021/05/20 06:41:50;;;;;;;3.65;3.10;;;13.20;95.00;;;;;;6274489;28;20121;-78
2021/05/20 06:44:52;;;;;;;3.10;2.80;;;13.30;94.20;;;;;;6273572;28;20053;-78
2021/05/20 06:47:54;;;;;;;4.43;3.65;;;13.30;94.30;;;;;;6275753;28;20438;-77
2021/05/20 06:50:55;;;;;;;5.25;3.45;;;13.30;93.50;;;;;;6274962;28;20132;-77
2021/05/20 06:53:56;;;;;;;5.80;3.78;;;13.40;93.30;;;;;;6273822;28;20583;-78
2021/05/20 06:57:02;;;;;;;6.18;4.25;;;13.40;92.80;;;;;;6273159;28;20114;-78
2021/05/20 07:00:04;;;;;;;3.80;3.40;;;13.40;92.20;;;;;;6273340;28;20053;-77
2021/05/20 07:03:05;;;;;;;3.65;3.20;;;13.40;92.30;;;;;;6273440;28;20045;-77
2021/05/20 07:06:07;;;;;;;3.65;2.80;;;13.30;92.40;;;;;;6273385;28;20055;-78
2021/05/20 07:09:08;;;;;;;10.15;3.63;;;13.20;92.60;;;;;;6273033;28;20514;-77
2021/05/20 07:12:12;;;;;;;3.95;2.28;;;13.30;92.90;;;;;;6273149;28;20048;-77
2021/05/20 07:15:14;;;;;;;3.97;2.83;;;13.50;92.80;;;;;;6249910;28;20514;-77
2021/05/20 07:18:15;;;;;;;4.32;4.03;;;14.00;91.50;;;;;;6248251;28;20041;-78
2021/05/20 07:21:17;;;;;;;2.95;2.75;;;14.20;90.40;;;;;;6247137;28;20056;-78
2021/05/20 07:24:19;;;;;;;3.22;2.10;;;14.10;90.30;;;;;;6248680;28;20065;-78
2021/05/20 07:27:21;;;;;;;4.25;2.67;;;14.30;90.30;;;;;;6248810;28;20049;-78
2021/05/20 07:30:23;;;;;;;3.85;2.88;;;14.20;90.60;;;;;;6247572;28;20128;-76
2021/05/20 07:33:25;;;;;;;3.25;2.67;;;14.40;90.70;;;;;;6247468;28;20172;-75
2021/05/20 07:36:26;;;;;;;6.53;2.78;;;14.80;90.10;;;;;;6248251;28;20045;-77
2021/05/20 07:39:28;;;;;;;5.35;2.25;;;15.60;84.10;;;;;;6248953;28;20084;-79
2021/05/20 07:42:30;;;;;;;3.50;3.10;;;15.90;81.90;;;;;;6248774;28;20054;-76
2021/05/20 07:45:31;;;;;;;2.30;2.10;;;15.80;80.90;;;;;;6248449;28;20072;-78
2021/05/20 07:48:33;;;;;;;3.05;2.75;;;15.70;80.50;;;;;;6248837;28;20530;-78
2021/05/20 07:51:35;;;;;;;2.20;2.00;;;16.10;77.80;;;;;;6248882;28;20053;-78
2021/05/20 07:54:36;;;;;;;3.00;2.70;;;16.30;76.50;;;;;;6248432;28;20087;-78
2021/05/20 07:57:39;;;;;;;4.78;2.40;;;16.60;75.40;;;;;;6249231;28;20049;-77
2021/05/20 08:00:40;;;;;;;3.33;3.03;;;16.70;73.80;;;;;;6250970;28;20046;-78
2021/05/20 08:03:45;;;;;;;2.72;2.47;;;16.30;74.00;;;;;;6247534;28;20065;-77
2021/05/20 08:06:51;;;;;;;2.97;2.70;;;16.50;72.10;;;;;;6248753;28;20056;-77
2021/05/20 08:10:05;;;;;;;2.55;2.33;;;16.70;72.60;;;;;;6247131;28;20057;-78
2021/05/20 08:13:08;;;;;;;2.47;1.90;;;17.00;70.60;;;;;;6253284;28;20041;-78
2021/05/20 08:16:11;;;;;;;3.42;3.13;;;17.20;70.00;;;;;;6271655;28;20529;-77
2021/05/20 08:19:12;;;;;;;5.07;1.88;;;17.60;67.10;;;;;;6271980;28;20085;-78
2021/05/20 08:22:13;;;;;;;1.90;1.67;;;17.70;66.70;;;;;;6271579;28;20067;-78
2021/05/20 08:25:15;;;;;;;2.83;1.80;;;17.70;64.50;;;;;;6271880;28;20069;-78
2021/05/20 08:28:17;;;;;;;4.63;3.13;;;17.60;64.60;;;;;;6272006;28;20120;-77
2021/05/20 08:31:19;;;;;;;2.45;1.98;;;17.40;66.10;;;;;;6273433;28;20551;-77
2021/05/20 08:34:20;;;;;;;2.15;1.95;;;17.60;66.30;;;;;;6276863;28;20110;-77
2021/05/20 08:37:21;;;;;;;2.00;1.73;;;17.70;65.80;;;;;;6276370;28;20124;-77
2021/05/20 08:40:23;;;;;;;2.58;2.38;;;17.70;66.00;;;;;;6275628;28;20448;-77
2021/05/20 08:43:25;;;;;;;5.63;2.10;;;18.00;65.20;;;;;;6276704;28;20045;-77
2021/05/20 08:46:26;;;;;;;1.83;1.73;;;18.10;63.10;;;;;;6275913;28;20123;-77
2021/05/20 08:49:28;;;;;;;2.38;2.15;;;18.60;61.50;;;;;;6275815;28;20049;-78
2021/05/20 08:52:29;;;;;;;4.72;1.60;;;19.30;60.00;;;;;;6275977;28;20547;-77
2021/05/20 08:55:32;;;;;;;1.92;1.70;;;20.60;60.40;;;;;;6275904;28;20132;-77
2021/05/20 08:58:35;;;;;;;3.25;1.60;;;20.70;57.50;;;;;;6275726;28;20123;-78
2021/05/20 09:01:37;;;;;;;1.85;1.75;;;20.80;54.70;;;;;;6276094;28;20524;-78
2021/05/20 09:04:39;;;;;;;2.25;1.67;;;21.30;52.00;;;;;;6275288;28;20045;-78
2021/05/20 09:07:43;;;;;;;3.70;1.50;;;21.40;51.90;;;;;;6275874;28;20487;-78
2021/05/20 09:10:45;;;;;;;2.75;2.45;;;22.10;50.70;;;;;;6275427;28;20044;-77
2021/05/20 09:13:48;;;;;;;4.40;2.03;;;21.90;50.70;;;;;;6263364;28;20152;-77
2021/05/20 09:16:49;;;;;;;2.15;1.95;;;21.20;52.10;;;;;;6250630;28;20082;-77
2021/05/20 09:19:53;;;;;;;8.80;1.60;;;20.10;54.50;;;;;;6251191;28;20525;-77
2021/05/20 09:23:06;;;;;;;2.03;1.40;;;18.90;57.50;;;;;;6252702;28;20189;-77
2021/05/20 09:26:09;;;;;;;5.50;1.73;;;18.00;60.90;;;;;;6253327;28;20069;-77
2021/05/20 09:29:13;;;;;;;6.32;1.00;;;17.30;63.10;;;;;;6253709;28;20046;-78
2021/05/20 09:32:14;;;;;;;1.60;1.13;;;16.80;64.50;;;;;;6254906;28;20088;-77
2021/05/20 09:35:17;;;;;;;1.33;1.05;;;16.30;65.60;;;;;;6258618;28;20084;-77
2021/05/20 09:38:20;;;;;;;3.28;1.67;;;16.50;65.80;;;;;;6251551;28;20099;-78
2021/05/20 09:41:21;;;;;;;1.48;1.38;;;17.30;65.20;;;;;;6249609;28;20053;-77
2021/05/20 09:44:28;;;;;;;1.30;1.20;;;18.90;58.80;;;;;;6248504;28;20041;-77
2021/05/20 09:47:29;;;;;;;1.40;1.30;;;19.90;55.00;;;;;;6250743;28;20526;-78
2021/05/20 09:50:36;;;;;;;1.00;0.90;;;20.70;53.00;;;;;;6249657;28;20049;-78
2021/05/20 09:53:45;;;;;;;1.30;1.10;;;20.80;51.90;;;;;;6249498;28;20450;-77
2021/05/20 09:56:46;;;;;;;1.30;1.20;;;20.10;53.10;;;;;;6248550;28;20094;-78
2021/05/20 09:59:59;;;;;;;1.48;1.30;;;19.80;55.20;;;;;;6248734;28;20479;-76
2021/05/20 10:03:03;;;;;;;1.30;1.20;;;20.30;53.80;;;;;;6250506;28;20424;-78
2021/05/20 10:06:05;;;;;;;1.58;1.20;;;20.90;52.20;;;;;;6265770;28;20045;-78
2021/05/20 10:09:08;;;;;;;1.80;1.58;;;21.20;50.30;;;;;;6274372;28;20067;-78
2021/05/20 10:12:10;;;;;;;1.42;1.33;;;20.90;51.00;;;;;;6274819;28;20137;-77
2021/05/20 10:15:15;;;;;;;1.70;1.60;;;20.40;53.10;;;;;;6274011;28;20041;-78
2021/05/20 10:18:17;;;;;;;2.15;1.95;;;20.20;54.10;;;;;;6274007;28;20070;-78
2021/05/20 10:21:19;;;;;;;1.92;1.50;;;20.20;54.30;;;;;;6274268;28;20041;-77
2021/05/20 10:24:20;;;;;;;2.03;1.83;;;20.20;54.90;;;;;;6273753;28;20120;-78
2021/05/20 10:27:22;;;;;;;2.38;1.45;;;20.50;54.20;;;;;;6275151;28;20076;-78
2021/05/20 10:30:25;;;;;;;1.83;1.55;;;20.60;53.60;;;;;;6273502;28;20128;-77
2021/05/20 10:33:28;;;;;;;1.60;1.30;;;20.70;53.50;;;;;;6273167;28;20178;-78
2021/05/20 10:36:30;;;;;;;1.77;1.15;;;20.70;54.30;;;;;;6273857;28;20124;-77
2021/05/20 10:39:31;;;;;;;4.30;2.00;;;20.80;53.40;;;;;;6274239;28;20108;-78
2021/05/20 10:42:33;;;;;;;2.50;1.00;;;20.80;53.70;;;;;;6273169;28;20100;-78
2021/05/20 10:45:38;;;;;;;1.10;0.70;;;20.80;52.20;;;;;;6273736;28;20132;-79
2021/05/20 10:48:49;;;;;;;0.88;0.80;;;20.80;51.50;;;;;;6276800;28;20574;-78
2021/05/20 10:51:50;;;;;;;1.10;0.90;;;21.00;50.60;;;;;;6274040;28;20053;-78
2021/05/20 10:54:59;;;;;;;1.10;0.75;;;21.00;50.30;;;;;;6272601;28;20124;-78
2021/05/20 10:58:01;;;;;;;1.20;1.10;;;21.00;48.00;;;;;;6274392;28;20510;-78
2021/05/20 11:01:06;;;;;;;2.65;0.70;;;21.10;48.70;;;;;;6274179;28;20080;-78
2021/05/20 11:04:08;;;;;;;0.85;0.82;;;21.30;49.00;;;;;;6274234;28;20566;-78
2021/05/20 11:07:10;;;;;;;1.15;0.95;;;21.30;48.30;;;;;;6274281;28;20544;-78
2021/05/20 11:10:12;;;;;;;0.85;0.70;;;21.20;47.80;;;;;;6273824;28;20049;-78
2021/05/20 11:13:14;;;;;;;1.13;0.70;;;21.10;48.70;;;;;;6268623;28;20076;-78
2021/05/20 11:16:17;;;;;;;1.20;1.13;;;21.40;49.20;;;;;;6248086;28;20524;-77
2021/05/20 11:19:28;;;;;;;1.00;0.90;;;21.70;48.10;;;;;;6247189;28;20077;-77
2021/05/20 11:22:33;;;;;;;2.47;1.27;;;21.60;48.20;;;;;;6247546;28;20180;-79
2021/05/20 11:25:34;;;;;;;1.05;0.95;;;21.50;49.80;;;;;;6248067;28;20419;-78
2021/05/20 11:28:43;;;;;;;1.92;1.00;;;21.80;48.90;;;;;;6249118;28;20577;-77
2021/05/20 11:31:46;;;;;;;0.80;0.63;;;22.30;48.20;;;;;;6248664;28;20052;-79
2021/05/20 11:35:03;;;;;;;3.80;1.25;;;22.50;46.30;;;;;;6249209;28;20050;-78
2021/05/20 11:38:04;;;;;;;1.58;1.20;;;22.40;45.80;;;;;;6249368;28;20050;-78
2021/05/20 11:41:13;;;;;;;2.92;1.10;;;22.10;47.60;;;;;;6250901;28;20084;-78
2021/05/20 11:44:16;;;;;;;3.85;1.50;;;21.80;48.90;;;;;;6248551;28;20124;-77
2021/05/20 11:47:22;;;;;;;1.38;1.27;;;21.70;48.60;;;;;;6248973;28;20511;-79
2021/05/20 11:50:23;;;;;;;3.70;1.30;;;21.30;49.50;;;;;;6247741;28;20052;-78
2021/05/20 11:53:25;;;;;;;1.63;1.40;;;21.20;51.30;;;;;;6247057;28;20511;-80
2021/05/20 11:56:36;;;;;;;1.77;1.30;;;21.50;50.20;;;;;;6247559;28;20128;-78
2021/05/20 11:59:46;;;;;;;1.60;1.40;;;21.40;50.40;;;;;;6247158;28;20168;-78
2021/05/20 12:02:54;;;;;;;2.80;1.67;;;21.30;51.00;;;;;;6245880;28;20579;-77
2021/05/20 12:05:58;;;;;;;3.30;1.20;;;20.70;50.30;;;;;;6246811;28;20075;-77
2021/05/20 12:09:10;;;;;;;2.88;1.70;;;20.20;51.30;;;;;;6250434;28;20061;-78
2021/05/20 12:12:12;;;;;;;2.00;1.10;;;19.60;52.30;;;;;;6251337;28;20084;-77
2021/05/20 12:15:16;;;;;;;2.05;1.20;;;19.20;53.80;;;;;;6275192;28;20045;-78
2021/05/20 12:18:20;;;;;;;1.40;1.30;;;19.20;53.40;;;;;;6276082;28;20528;-78
2021/05/20 12:21:21;;;;;;;3.47;1.10;;;19.10;53.10;;;;;;6276487;28;20410;-77
2021/05/20 12:24:29;;;;;;;2.45;1.42;;;19.00;52.80;;;;;;6275964;28;20517;-77
2021/05/20 12:27:43;;;;;;;2.75;1.20;;;18.90;53.20;;;;;;6276934;28;20064;-77
2021/05/20 12:30:44;;;;;;;2.60;1.50;;;18.90;52.80;;;;;;6275368;28;20045;-77
2021/05/20 12:33:47;;;;;;;1.20;1.00;;;19.10;53.90;;;;;;6275425;28;20052;-78
2021/05/20 12:36:48;;;;;;;1.05;0.93;;;19.30;51.20;;;;;;6276922;28;20072;-78
2021/05/20 12:39:49;;;;;;;4.13;3.72;;;19.30;51.90;;;;;;6276093;28;20405;-77
2021/05/20 12:43:04;;;;;;;1.77;1.67;;;19.50;51.80;;;;;;6275662;28;20080;-77
2021/05/20 12:46:07;;;;;;;1.85;1.70;;;20.10;50.50;;;;;;6275350;28;20045;-77
2021/05/20 12:49:10;;;;;;;3.45;1.75;;;20.10;50.00;;;;;;6275311;28;20044;-78
2021/05/20 12:52:11;;;;;;;2.47;1.60;;;19.70;51.00;;;;;;6275624;28;20139;-77
2021/05/20 12:55:14;;;;;;;2.92;1.30;;;19.50;51.70;;;;;;6275601;28;20159;-77
2021/05/20 12:58:15;;;;;;;3.80;3.55;;;19.20;52.70;;;;;;6275697;28;20130;-77
2021/05/20 13:01:17;;;;;;;2.33;2.13;;;19.10;53.10;;;;;;6274942;28;20071;-78
2021/05/20 13:04:23;;;;;;;2.08;1.85;;;19.30;52.80;;;;;;6274804;28;20413;-77
2021/05/20 13:07:32;;;;;;;3.83;3.55;;;19.40;52.20;;;;;;6275274;28;20390;-77
2021/05/20 13:10:35;;;;;;;2.40;2.20;;;19.60;52.40;;;;;;6274539;28;20521;-77
2021/05/20 13:13:39;;;;;;;5.05;3.67;;;19.80;51.30;;;;;;6264842;28;20061;-77
2021/05/20 13:16:48;;;;;;;5.43;4.18;;;19.90;50.50;;;;;;6250069;28;20465;-77
2021/05/20 13:20:13;;;;;;;2.25;1.90;;;20.00;51.10;;;;;;6251034;28;20068;-77
2021/05/20 13:23:28;;;;;;;3.65;1.98;;;20.40;51.10;;;;;;6251196;28;20056;-77
2021/05/20 13:26:29;;;;;;;2.13;1.92;;;20.30;51.30;;;;;;6249902;28;20483;-77
2021/05/20 13:29:37;;;;;;;4.97;2.67;;;20.40;50.80;;;;;;6249648;28;20049;-77
2021/05/20 13:32:41;;;;;;;3.72;1.90;;;20.30;49.40;;;;;;6249754;28;20037;-78
2021/05/20 13:35:43;;;;;;;1.83;1.55;;;20.10;50.70;;;;;;6253315;28;20052;-78
2021/05/20 13:38:45;;;;;;;1.98;1.77;;;20.10;50.50;;;;;;6251048;28;20045;-78
2021/05/20 13:41:46;;;;;;;1.60;1.50;;;20.00;51.30;;;;;;6250269;28;20072;-78
2021/05/20 13:44:49;;;;;;;1.92;1.73;;;20.10;51.20;;;;;;6249858;28;20136;-76
2021/05/20 13:47:52;;;;;;;1.63;1.52;;;19.90;51.10;;;;;;6249700;28;20075;-77
2021/05/20 13:50:54;;;;;;;1.83;1.65;;;19.60;51.50;;;;;;6253001;28;20045;-77
2021/05/20 13:54:00;;;;;;;1.63;1.52;;;19.40;52.50;;;;;;6258282;28;20056;-77
2021/05/20 13:57:02;;;;;;;3.45;2.15;;;19.40;52.50;;;;;;6272858;28;20045;-77
2021/05/20 14:00:06;;;;;;;1.55;1.45;;;19.50;52.80;;;;;;6273527;28;20048;-77
2021/05/20 14:03:14;;;;;;;1.65;1.50;;;;;;;;;;6274699;28;20048;-77
2021/05/20 14:06:16;;;;;;;2.47;1.30;;;19.70;51.40;;;;;;6273938;28;20041;-77
2021/05/20 14:09:17;;;;;;;1.20;1.10;;;19.90;51.80;;;;;;6273574;28;20292;-78
2021/05/20 14:12:19;;;;;;;2.28;1.30;;;20.00;51.10;;;;;;6273701;28;20159;-77
2021/05/20 14:15:21;;;;;;;2.65;1.60;;;20.00;50.90;;;;;;6273859;28;20482;-78
2021/05/20 14:18:23;;;;;;;3.88;1.30;;;19.90;51.50;;;;;;6266958;28;20112;-77
2021/05/20 14:21:26;;;;;;;2.08;0.95;;;19.80;51.70;;;;;;6259763;28;20446;-78
2021/05/20 14:24:28;;;;;;;3.05;1.77;;;20.00;51.60;;;;;;6273963;28;20515;-77
2021/05/20 14:27:29;;;;;;;2.72;1.42;;;20.10;50.80;;;;;;6273531;28;20139;-77
2021/05/20 14:30:30;;;;;;;38.33;22.90;;;20.10;50.50;;;;;;6272942;28;20072;-77
2021/05/20 14:33:32;;;;;;;58.35;37.15;;;20.00;50.80;;;;;;6274541;28;20087;-77
2021/05/20 14:36:35;;;;;;;2.10;1.38;;;20.10;51.00;;;;;;6273909;28;20052;-77
2021/05/20 14:39:36;;;;;;;3.95;2.08;;;20.20;50.60;;;;;;6273250;28;20411;-77
2021/05/20 14:42:37;;;;;;;3.53;2.33;;;20.30;50.30;;;;;;6272653;28;20048;-77
2021/05/20 14:45:39;;;;;;;2.03;1.52;;;20.40;50.00;;;;;;6272579;28;20529;-78
2021/05/20 14:48:42;;;;;;;1.55;1.13;;;20.40;51.00;;;;;;6272596;28;20106;-77
2021/05/20 14:51:44;;;;;;;3.50;3.20;;;20.60;48.80;;;;;;6273896;28;20553;-79
2021/05/20 14:54:50;;;;;;;1.88;1.63;;;20.40;49.70;;;;;;6272164;28;20041;-77
2021/05/20 15:07:50;;;;;;;2.78;2.05;;;20.00;50.10;;;;;;6273006;28;20048;-77
2021/05/20 15:11:03;;;;;;;12.32;8.23;;;19.90;50.00;;;;;;6271587;28;20041;-77
2021/05/20 15:14:09;;;;;;;4.55;2.20;;;19.90;50.40;;;;;;6272064;28;20188;-77
2021/05/20 15:17:14;;;;;;;5.43;4.07;;;19.90;49.50;;;;;;6271576;28;20041;-77
2021/05/20 15:20:17;;;;;;;0.80;0.80;;;19.80;49.40;;;;;;6272606;28;20076;-77
2021/05/20 15:23:19;;;;;;;3.22;1.70;;;19.70;48.90;;;;;;6273308;28;20049;-77
2021/05/20 15:26:20;;;;;;;1.20;1.13;;;19.60;48.90;;;;;;6272209;28;20527;-77
2021/05/20 15:29:22;;;;;;;1.55;1.33;;;19.60;48.70;;;;;;6271585;28;20049;-78
2021/05/20 15:32:24;;;;;;;1.25;1.10;;;19.50;48.80;;;;;;6272761;28;20045;-77
2021/05/20 15:35:25;;;;;;;1.95;1.67;;;19.40;49.90;;;;;;6272300;28;20510;-77
2021/05/20 15:38:27;;;;;;;0.95;0.93;;;19.30;49.10;;;;;;6271466;28;20059;-77
2021/05/20 15:41:29;;;;;;;1.35;1.25;;;19.10;49.30;;;;;;6271156;28;20049;-78
2021/05/20 15:44:31;;;;;;;1.63;1.00;;;19.10;49.90;;;;;;6271458;28;20036;-77
2021/05/20 15:47:38;;;;;;;1.30;0.77;;;19.10;50.00;;;;;;6271907;28;20049;-77
2021/05/20 15:50:39;;;;;;;1.27;1.08;;;19.00;49.90;;;;;;6270824;28;20399;-77
2021/05/20 15:53:42;;;;;;;4.63;1.00;;;18.90;50.20;;;;;;6271307;28;20041;-76
2021/05/20 15:56:43;;;;;;;1.42;1.15;;;18.90;49.60;;;;;;6270541;28;20045;-77
2021/05/20 15:59:45;;;;;;;1.23;1.13;;;18.80;49.00;;;;;;6267486;28;20536;-77
2021/05/20 16:02:46;;;;;;;1.92;1.27;;;18.80;50.10;;;;;;6270972;28;20124;-77